Time;durP1;ratioP1;P1;durP2;ratioP2;P2;SDS_P1;SDS_P2;PMS_P1;PMS_P2;Temp;Humidity;BMP_temperature;BMP_pressure;BME280_temperature;BME280_humidity;BME280_pressure;Samples;Min_cycle;Max_cycle;Signal;HPM_P1;HPM_P2
2022/04/15 00:03:05;;;;;;;30.53;15.37;;;;;;;13.47;63.78;100563.34;10451826;28;20551;-68
2022/04/15 00:08:12;;;;;;;26.57;15.93;;;;;;;13.50;62.83;100558.94;10454269;28;20637;-67
2022/04/15 00:13:19;;;;;;;37.80;19.50;;;;;;;13.89;60.42;100562.53;10454482;28;20229;-70
2022/04/15 00:18:23;;;;;;;34.10;16.77;;;;;;;14.07;59.94;100558.66;10454697;28;20197;-70
2022/04/15 00:23:31;;;;;;;30.83;18.13;;;;;;;14.06;60.09;100572.63;10454189;28;20683;-70
2022/04/15 00:28:35;;;;;;;38.20;16.97;;;;;;;14.06;59.65;100594.38;10428367;28;20190;-69
2022/04/15 00:33:38;;;;;;;34.03;17.77;;;;;;;13.99;59.44;100597.13;10412641;28;20213;-69
2022/04/15 00:38:42;;;;;;;31.77;19.03;;;;;;;13.89;59.95;100593.84;10417550;28;20198;-70
2022/04/15 00:43:46;;;;;;;46.03;26.43;;;;;;;13.84;60.05;100598.25;10419755;28;20224;-68
2022/04/15 00:48:49;;;;;;;35.00;17.50;;;;;;;13.71;60.97;100595.06;10427182;28;20213;-69
2022/04/15 00:53:56;;;;;;;34.70;16.77;;;;;;;13.64;60.93;100595.19;10458036;28;20217;-69
2022/04/15 00:59:02;;;;;;;30.10;17.07;;;;;;;13.60;62.43;100599.59;10460284;28;20219;-70
2022/04/15 01:04:08;;;;;;;32.63;17.13;;;;;;;13.50;62.53;100603.25;10460219;28;20224;-68
2022/04/15 01:09:13;;;;;;;28.87;16.03;;;;;;;13.46;62.64;100593.78;10460624;28;20223;-70
2022/04/15 01:14:18;;;;;;;30.53;17.13;;;;;;;13.38;63.73;100597.41;10462824;28;20305;-70
2022/04/15 01:19:22;;;;;;;27.43;16.90;;;;;;;13.26;65.61;100597.63;10460119;28;20578;-68
2022/04/15 01:24:27;;;;;;;28.80;16.13;;;;;;;13.19;66.39;100599.47;10459511;28;20721;-70
2022/04/15 01:29:37;;;;;;;27.13;16.07;;;;;;;13.12;67.48;100610.88;10459615;28;20248;-69
2022/04/15 01:34:40;;;;;;;26.23;15.40;;;;;;;13.09;69.31;100610.94;10459118;28;20315;-71
2022/04/15 01:39:45;;;;;;;46.87;28.33;;;;;;;13.12;68.69;100596.97;10459187;28;20674;-64
2022/04/15 01:44:48;;;;;;;27.50;15.80;;;;;;;13.16;68.65;100599.53;10458588;28;20566;-67
2022/04/15 01:49:51;;;;;;;25.50;14.70;;;;;;;13.24;69.63;100602.84;10458235;28;20248;-67
2022/04/15 01:54:56;;;;;;;28.93;16.00;;;;;;;13.17;71.67;100598.63;10458688;28;20245;-65
2022/04/15 01:59:59;;;;;;;24.30;15.50;;;;;;;13.09;73.82;100591.84;10458065;28;20891;-70
2022/04/15 02:05:03;;;;;;;23.17;14.80;;;;;;;13.14;75.97;100603.03;10457796;28;20686;-70
2022/04/15 02:10:08;;;;;;;26.07;14.70;;;;;;;13.04;80.11;100601.47;10457765;28;20274;-68
2022/04/15 02:15:12;;;;;;;25.57;15.40;;;;;;;12.89;85.22;100599.91;10457115;28;20588;-70
2022/04/15 02:20:15;;;;;;;23.00;15.67;;;;;;;12.82;85.77;100603.53;10457383;28;20225;-68
2022/04/15 02:25:19;;;;;;;26.10;15.30;;;;;;;12.76;90.84;100603.63;10456926;28;20217;-69
2022/04/15 02:30:23;;;;;;;23.63;14.37;;;;;;;12.70;91.82;100608.94;10456863;28;20482;-69
2022/04/15 02:35:26;;;;;;;30.13;16.87;;;;;;;12.74;88.85;100607.97;10456885;28;20303;-69
2022/04/15 02:40:31;;;;;;;22.93;14.97;;;;;;;12.68;88.55;100613.28;10456513;28;20213;-70
2022/04/15 02:45:34;;;;;;;26.33;14.63;;;;;;;12.73;88.28;100620.13;10456341;28;20220;-69
2022/04/15 02:50:39;;;;;;;23.00;15.43;;;;;;;12.75;87.26;100626.19;10456189;28;20743;-70
2022/04/15 02:55:43;;;;;;;23.37;14.70;;;;;;;12.72;88.09;100630.56;10456081;28;20686;-67
2022/04/15 03:00:46;;;;;;;35.17;22.30;;;;;;;12.70;90.88;100637.56;10455486;28;20221;-70
2022/04/15 03:05:50;;;;;;;28.50;16.83;;;;;;;12.64;94.87;100633.31;10455583;28;20724;-69
2022/04/15 03:10:54;;;;;;;26.47;16.00;;;;;;;12.53;99.44;100634.31;10457674;28;20311;-72
2022/04/15 03:15:58;;;;;;;24.97;16.80;;;;;;;12.42;100.00;100628.41;10458665;28;20247;-69
2022/04/15 03:21:01;;;;;;;33.23;17.20;;;;;;;12.42;100.00;100623.22;10458746;28;20216;-70
2022/04/15 03:26:07;;;;;;;25.40;16.77;;;;;;;12.37;100.00;100622.41;10458446;28;20234;-71
2022/04/15 03:31:10;;;;;;;27.73;16.57;;;;;;;12.40;100.00;100614.56;10458679;28;20219;-71
2022/04/15 03:36:15;;;;;;;29.90;17.07;;;;;;;12.42;100.00;100624.06;10458385;28;20220;-70
2022/04/15 03:41:20;;;;;;;27.00;16.90;;;;;;;12.40;99.74;100641.44;10458440;28;20529;-70
2022/04/15 03:46:24;;;;;;;25.70;16.03;;;;;;;12.44;96.89;100655.28;10458242;28;20243;-72
2022/04/15 03:51:27;;;;;;;29.97;18.17;;;;;;;12.50;92.54;100642.19;10458121;28;20690;-70
2022/04/15 03:56:32;;;;;;;40.23;25.50;;;;;;;12.53;92.79;100639.53;10458119;28;20285;-72
2022/04/15 04:01:35;;;;;;;23.33;16.27;;;;;;;12.53;94.45;100623.91;10458539;28;20219;-70
2022/04/15 04:06:40;;;;;;;30.57;15.47;;;;;;;12.56;94.70;100642.13;10457764;28;20240;-69
2022/04/15 04:11:44;;;;;;;26.43;15.27;;;;;;;12.58;92.39;100630.78;10460628;28;20571;-69
2022/04/15 04:16:48;;;;;;;24.53;15.07;;;;;;;12.61;94.35;100638.53;10465548;28;20242;-71
2022/04/15 04:21:51;;;;;;;22.90;14.87;;;;;;;12.55;94.66;100642.97;10465268;28;20572;-71
2022/04/15 04:26:55;;;;;;;24.13;14.73;;;;;;;12.54;93.78;100649.94;10464948;28;20217;-70
2022/04/15 04:31:59;;;;;;;24.50;15.37;;;;;;;12.60;93.94;100651.59;10465270;28;20234;-72
2022/04/15 04:37:02;;;;;;;23.67;15.37;;;;;;;12.61;93.24;100659.38;10464672;28;20231;-70
2022/04/15 04:42:08;;;;;;;22.57;14.80;;;;;;;12.62;93.72;100661.09;10464533;28;20212;-70
2022/04/15 04:47:12;;;;;;;25.70;15.03;;;;;;;12.58;93.65;100662.03;10464648;28;20548;-71
2022/04/15 04:52:15;;;;;;;22.17;14.37;;;;;;;12.62;95.01;100665.44;10464417;28;20217;-72
2022/04/15 04:57:20;;;;;;;25.77;16.27;;;;;;;12.64;95.41;100668.91;10463958;28;20227;-74
2022/04/15 05:02:28;;;;;;;22.80;13.03;;;;;;;12.61;95.55;100659.38;10463773;28;20216;-69
2022/04/15 05:07:32;;;;;;;21.57;12.83;;;;;;;12.66;96.78;100672.34;10463423;28;20232;-71
2022/04/15 05:12:42;;;;;;;22.97;12.70;;;;;;;12.63;98.30;100677.59;10462951;28;20626;-68
2022/04/15 05:17:46;;;;;;;21.20;12.70;;;;;;;12.70;98.63;100679.25;10463436;28;20220;-70
2022/04/15 05:22:49;;;;;;;21.07;11.80;;;;;;;12.74;98.09;100668.75;10462136;28;20238;-71
2022/04/15 05:27:58;;;;;;;23.27;12.03;;;;;;;12.78;98.17;100672.19;10462570;28;20221;-71
2022/04/15 05:33:01;;;;;;;17.77;12.20;;;;;;;12.82;96.54;100673.00;10462641;28;20247;-69
2022/04/15 05:38:07;;;;;;;19.17;11.40;;;;;;;12.85;97.79;100679.03;10462001;28;20612;-70
2022/04/15 05:43:12;;;;;;;19.37;11.40;;;;;;;12.80;100.00;100693.84;10461778;28;20217;-64
2022/04/15 05:48:15;;;;;;;17.73;10.83;;;;;;;12.60;100.00;100693.25;10461877;28;20227;-68
2022/04/15 05:53:18;;;;;;;18.07;11.50;;;;;;;12.57;100.00;100707.19;10109383;28;9999956;-71
2022/04/15 05:58:23;;;;;;;18.87;11.27;;;;;;;12.49;100.00;100706.41;10458447;28;20220;-68
2022/04/15 06:03:32;;;;;;;17.37;11.20;;;;;;;12.32;100.00;100717.91;10458160;28;20221;-65
2022/04/15 06:08:35;;;;;;;20.33;12.13;;;;;;;12.25;100.00;100724.91;10457916;28;20747;-64
2022/04/15 06:13:42;;;;;;;19.27;11.33;;;;;;;12.29;100.00;100728.34;10457586;28;20228;-63
2022/04/15 06:18:45;;;;;;;21.27;12.20;;;;;;;12.16;100.00;100716.34;10457478;28;20300;-69
2022/04/15 06:24:08;;;;;;;18.97;11.00;;;;;;;12.22;100.00;100721.47;10457133;28;20229;-68
2022/04/15 06:29:13;;;;;;;21.17;11.70;;;;;;;12.23;100.00;100723.22;10457199;28;20613;-72
2022/04/15 06:34:16;;;;;;;16.70;11.60;;;;;;;12.20;100.00;100725.84;10455693;28;20223;-67
2022/04/15 06:39:20;;;;;;;18.43;10.67;;;;;;;12.15;100.00;100740.66;10456547;28;20216;-71
2022/04/15 06:44:24;;;;;;;19.27;11.67;;;;;;;12.21;100.00;100740.56;10456494;28;20525;-68
2022/04/15 06:49:28;;;;;;;18.53;12.30;;;;;;;12.07;100.00;100740.72;10438979;28;20684;-70
2022/04/15 06:54:31;;;;;;;27.03;13.23;;;;;;;12.04;100.00;100747.69;10456274;28;20216;-70
2022/04/15 06:59:36;;;;;;;21.47;12.07;;;;;;;12.00;100.00;100756.41;10455515;28;20307;-69
2022/04/15 07:04:39;;;;;;;23.93;12.80;;;;;;;12.01;100.00;100755.53;10455647;28;20224;-69
2022/04/15 07:09:44;;;;;;;25.23;15.98;;;;;;;12.08;100.00;100763.25;10453771;28;20494;-69
2022/04/15 07:14:49;;;;;;;21.97;12.90;;;;;;;12.13;100.00;100763.22;10453136;28;20289;-68
2022/04/15 07:19:52;;;;;;;21.80;12.67;;;;;;;12.12;100.00;100766.69;10455113;28;20219;-68
2022/04/15 07:24:56;;;;;;;18.17;12.00;;;;;;;12.13;100.00;100766.66;10455143;28;20228;-68
2022/04/15 07:30:01;;;;;;;16.70;10.93;;;;;;;12.21;100.00;100766.59;10454797;28;20311;-67
2022/04/15 07:35:05;;;;;;;20.37;12.23;;;;;;;12.18;100.00;100758.84;10455253;28;20303;-70
2022/04/15 07:40:10;;;;;;;16.83;11.17;;;;;;;12.24;100.00;100771.75;10454742;28;20235;-68
2022/04/15 07:45:15;;;;;;;17.67;11.37;;;;;;;12.20;100.00;100764.88;10454259;28;20905;-68
2022/04/15 07:50:23;;;;;;;20.50;12.97;;;;;;;12.27;100.00;100770.00;10463737;28;20217;-68
2022/04/15 07:55:27;;;;;;;19.07;11.93;;;;;;;12.38;100.00;100760.34;10462899;28;20220;-69
2022/04/15 08:00:34;;;;;;;19.80;12.70;;;;;;;12.52;100.00;100761.06;10462902;28;20346;-68
2022/04/15 08:05:37;;;;;;;23.40;14.07;;;;;;;12.76;100.00;100752.06;10462609;28;20221;-70
2022/04/15 08:10:42;;;;;;;25.17;14.63;;;;;;;13.03;100.00;100761.31;10462199;28;20221;-68
2022/04/15 08:15:48;;;;;;;24.47;14.57;;;;;;;13.46;100.00;100755.44;10461272;28;20258;-69
2022/04/15 08:20:53;;;;;;;17.17;10.77;;;;;;;13.68;100.00;100754.19;10461365;28;20216;-70
2022/04/15 08:25:57;;;;;;;16.20;10.20;;;;;;;13.64;100.00;100768.22;10461074;28;20627;-69
2022/04/15 08:31:01;;;;;;;16.50;11.67;;;;;;;13.53;100.00;100770.09;10461299;28;20556;-64
2022/04/15 08:36:05;;;;;;;16.83;10.67;;;;;;;13.36;100.00;100774.72;10461135;28;20750;-64
2022/04/15 08:41:13;;;;;;;17.10;11.70;;;;;;;13.42;100.00;100771.16;10461365;28;20229;-65
2022/04/15 08:46:19;;;;;;;17.07;10.90;;;;;;;13.62;100.00;100772.56;10461106;28;20225;-63
2022/04/15 08:51:23;;;;;;;15.87;10.53;;;;;;;13.62;100.00;100771.72;10460695;28;20358;-65
2022/04/15 08:56:26;;;;;;;16.07;10.97;;;;;;;13.58;100.00;100773.50;10459509;28;20303;-63
2022/04/15 09:01:31;;;;;;;19.37;11.07;;;;;;;13.66;100.00;100778.59;10460236;28;20217;-65
2022/04/15 09:06:38;;;;;;;17.10;11.30;;;;;;;13.72;100.00;100773.28;10460231;28;20243;-61
2022/04/15 09:11:42;;;;;;;18.73;11.73;;;;;;;13.69;100.00;100775.94;10459872;28;20258;-63
2022/04/15 09:16:48;;;;;;;20.83;13.33;;;;;;;13.69;100.00;100770.72;10459289;28;20579;-61
2022/04/15 09:21:53;;;;;;;23.90;15.27;;;;;;;13.84;100.00;100775.69;10459759;28;20248;-62
2022/04/15 09:26:56;;;;;;;23.17;15.70;;;;;;;13.80;100.00;100790.53;10459518;28;20686;-67
2022/04/15 09:32:06;;;;;;;23.83;15.93;;;;;;;14.10;100.00;100772.66;10459476;28;20217;-66
2022/04/15 09:37:12;;;;;;;20.93;14.87;;;;;;;14.25;100.00;100770.63;10459030;28;20265;-66
2022/04/15 09:42:15;;;;;;;23.10;15.20;;;;;;;14.39;100.00;100775.63;10458830;28;20233;-65
2022/04/15 09:47:19;;;;;;;21.77;12.90;;;;;;;14.54;100.00;100775.31;10458785;28;20229;-66
2022/04/15 09:52:26;;;;;;;19.77;12.70;;;;;;;14.31;100.00;100772.28;10458212;28;20223;-68
2022/04/15 09:57:34;;;;;;;16.23;9.87;;;;;;;14.14;100.00;100766.47;10458230;28;20222;-69
2022/04/15 10:02:42;;;;;;;16.23;10.00;;;;;;;14.15;100.00;100771.66;10457893;28;20230;-67
2022/04/15 10:07:45;;;;;;;14.90;8.53;;;;;;;14.14;97.65;100769.06;10457392;28;20228;-69
2022/04/15 10:12:50;;;;;;;13.17;8.30;;;;;;;14.08;94.92;100772.66;10457619;28;20624;-69
2022/04/15 10:17:55;;;;;;;12.97;7.60;;;;;;;13.94;94.80;100782.50;10457596;28;20258;-68
2022/04/15 10:23:02;;;;;;;17.47;9.90;;;;;;;13.80;96.17;100787.09;10457368;28;20732;-68
2022/04/15 10:28:07;;;;;;;17.00;9.97;;;;;;;13.77;99.67;100787.97;10460358;28;20294;-69
2022/04/15 10:33:28;;;;;;;15.60;9.90;;;;;;;13.72;100.00;100781.09;10460072;28;20209;-71
2022/04/15 10:38:32;;;;;;;19.10;10.70;;;;;;;13.86;99.73;100780.00;10460809;28;20224;-70
2022/04/15 10:43:37;;;;;;;21.20;12.90;;;;;;;13.89;100.00;100776.50;10459634;28;20653;-69
2022/04/15 10:48:42;;;;;;;18.73;11.43;;;;;;;14.11;100.00;100775.22;10460710;28;20713;-69
2022/04/15 10:53:46;;;;;;;19.10;12.17;;;;;;;14.18;100.00;100775.97;10501216;28;20655;-71
2022/04/15 11:04:27;;;;;;;21.20;13.70;;;;;;;14.45;97.51;100765.03;10500256;28;20581;-68
2022/04/15 11:09:30;;;;;;;22.57;13.53;;;;;;;14.82;97.20;100764.25;10500409;28;20227;-69
2022/04/15 11:14:35;;;;;;;21.20;13.27;;;;;;;15.06;93.43;100765.53;10499797;28;20261;-69
2022/04/15 11:19:41;;;;;;;22.80;14.40;;;;;;;15.30;91.54;100762.34;10499460;28;20289;-70
2022/04/15 11:24:45;;;;;;;21.23;13.63;;;;;;;15.57;91.42;100748.66;10499700;28;20218;-70
2022/04/15 11:29:53;;;;;;;22.60;13.90;;;;;;;15.70;91.65;100746.59;10499382;28;20223;-68
2022/04/15 11:35:03;;;;;;;23.90;15.70;;;;;;;15.73;88.55;100742.16;10499672;28;20232;-69
2022/04/15 11:40:08;;;;;;;22.80;14.37;;;;;;;15.54;90.36;100750.47;10495097;28;20223;-70
2022/04/15 11:45:13;;;;;;;25.67;15.60;;;;;;;15.69;88.84;100747.50;10457936;28;20213;-69
2022/04/15 11:50:18;;;;;;;23.23;16.40;;;;;;;15.92;88.79;100759.13;10457937;28;20554;-69
2022/04/15 11:55:21;;;;;;;20.87;14.00;;;;;;;15.67;88.74;100744.06;10455943;28;20740;-70
2022/04/15 12:00:25;;;;;;;26.93;15.00;;;;;;;15.50;89.46;100746.22;10454772;28;20299;-70
2022/04/15 12:05:30;;;;;;;21.17;14.23;;;;;;;15.25;88.80;100739.81;10454389;28;20208;-72
2022/04/15 12:10:35;;;;;;;23.13;14.80;;;;;;;15.10;92.52;100734.94;10454474;28;20216;-70
2022/04/15 12:15:38;;;;;;;20.43;14.13;;;;;;;15.25;91.51;100724.13;10454436;28;20235;-69
2022/04/15 12:20:43;;;;;;;19.50;13.13;;;;;;;15.40;87.70;100726.41;10105407;28;9999859;-71
2022/04/15 12:26:09;;;;;;;26.27;13.63;;;;;;;15.83;85.47;100716.59;10453962;28;20199;-71
2022/04/15 12:31:34;;;;;;;20.97;13.17;;;;;;;17.01;78.27;100711.50;10455158;28;20295;-69
2022/04/15 12:36:42;;;;;;;18.50;12.87;;;;;;;18.16;73.53;100706.78;10456065;28;20228;-71
2022/04/15 12:41:48;;;;;;;17.97;11.70;;;;;;;18.38;72.05;100702.47;10461209;28;20254;-69
2022/04/15 12:46:57;;;;;;;18.40;11.77;;;;;;;17.69;74.14;100707.56;10460855;28;20224;-69
2022/04/15 12:52:12;;;;;;;17.57;11.20;;;;;;;17.59;71.90;100700.91;10460894;28;20223;-68
2022/04/15 12:57:18;;;;;;;20.23;11.70;;;;;;;18.00;70.33;100692.47;10462297;28;20231;-70
2022/04/15 13:02:21;;;;;;;14.83;10.13;;;;;;;17.24;72.97;100690.66;10463840;28;20231;-70
2022/04/15 13:07:27;;;;;;;17.83;10.70;;;;;;;16.93;73.74;100687.28;10463663;28;20664;-69
2022/04/15 13:12:30;;;;;;;16.70;9.87;;;;;;;16.74;74.87;100678.28;10463244;28;20557;-69
2022/04/15 13:17:33;;;;;;;14.57;9.77;;;;;;;16.67;74.16;100679.34;10462973;28;20216;-69
2022/04/15 13:22:38;;;;;;;14.57;9.90;;;;;;;17.41;70.36;100677.88;10463237;28;20303;-72
2022/04/15 13:27:41;;;;;;;15.07;9.03;;;;;;;16.98;72.08;100677.53;10462623;28;20655;-68
2022/04/15 13:32:45;;;;;;;15.23;9.27;;;;;;;17.52;71.08;100673.13;10462677;28;20199;-69
2022/04/15 13:37:50;;;;;;;14.07;8.97;;;;;;;16.88;71.00;100676.06;10459436;28;20687;-67
2022/04/15 13:42:54;;;;;;;11.30;6.00;;;;;;;16.46;70.35;100695.66;10458723;28;20275;-68
2022/04/15 13:47:57;;;;;;;11.23;7.00;;;;;;;15.88;69.92;100699.00;10459160;28;20304;-68
2022/04/15 13:58:23;;;;;;;32.03;16.90;;;;;;;15.12;75.75;100735.78;10461003;28;20250;-69
2022/04/15 14:03:27;;;;;;;15.57;8.27;;;;;;;14.83;84.72;100746.84;10461619;28;20189;-68
2022/04/15 14:08:31;;;;;;;13.53;8.53;;;;;;;14.30;96.48;100747.06;10460908;28;20227;-72
2022/04/15 14:13:35;;;;;;;12.00;7.40;;;;;;;14.01;100.00;100751.94;10460832;28;20229;-68
2022/04/15 14:18:39;;;;;;;11.47;7.10;;;;;;;13.78;100.00;100740.16;10460972;28;20203;-68
2022/04/15 14:23:44;;;;;;;11.23;7.03;;;;;;;13.70;100.00;100739.41;10460639;28;20196;-69
2022/04/15 14:28:47;;;;;;;12.87;6.27;;;;;;;13.59;100.00;100749.16;10460631;28;20220;-71
2022/04/15 14:33:50;;;;;;;12.23;6.40;;;;;;;13.61;100.00;100743.91;10460526;28;20627;-71
2022/04/15 14:38:56;;;;;;;14.50;7.13;;;;;;;13.89;100.00;100738.19;10459725;28;20307;-69
2022/04/15 14:43:59;;;;;;;11.40;6.70;;;;;;;14.10;100.00;100738.72;10460304;28;20669;-70
2022/04/15 14:49:03;;;;;;;14.70;8.17;;;;;;;14.27;100.00;100729.69;10459597;28;20254;-69
2022/04/15 14:54:10;;;;;;;13.10;7.30;;;;;;;14.37;98.95;100733.88;10459409;28;20257;-69
2022/04/15 14:59:13;;;;;;;10.27;5.77;;;;;;;14.26;96.40;100717.53;10459082;28;20269;-68
2022/04/15 15:04:17;;;;;;;10.33;6.07;;;;;;;14.13;96.98;100723.88;10459288;28;20205;-70
2022/04/15 15:09:42;;;;;;;11.53;6.10;;;;;;;14.09;96.53;100721.31;10459025;28;20221;-69
2022/04/15 15:14:46;;;;;;;10.20;5.87;;;;;;;14.10;96.90;100723.06;10458543;28;20250;-71
2022/04/15 15:19:51;;;;;;;10.97;6.30;;;;;;;14.11;97.62;100722.16;10459044;28;20197;-69
2022/04/15 15:30:16;;;;;;;12.00;7.57;;;;;;;14.20;96.76;100732.44;10458814;28;20235;-70
2022/04/15 15:35:19;;;;;;;15.93;9.27;;;;;;;14.14;97.99;100736.00;10458216;28;20217;-69
2022/04/15 15:40:24;;;;;;;13.70;8.53;;;;;;;14.14;99.45;100746.47;10458070;28;20220;-69
2022/04/15 15:45:30;;;;;;;13.60;8.30;;;;;;;14.10;100.00;100751.78;10458495;28;20222;-68
2022/04/15 15:50:33;;;;;;;16.30;8.37;;;;;;;13.90;100.00;100766.03;10457973;28;20220;-68
2022/04/15 15:55:38;;;;;;;13.47;6.77;;;;;;;13.67;100.00;100773.38;10457876;28;20242;-71
2022/04/15 16:00:42;;;;;;;11.97;6.90;;;;;;;13.27;100.00;100787.03;10458149;28;20538;-67
2022/04/15 16:05:45;;;;;;;10.20;6.13;;;;;;;12.79;100.00;100788.50;10457813;28;20189;-67
2022/04/15 16:10:51;;;;;;;10.77;7.10;;;;;;;12.49;100.00;100788.88;10465712;28;20224;-68
2022/04/15 16:15:55;;;;;;;10.23;6.47;;;;;;;12.29;100.00;100783.84;10465557;28;20255;-65
2022/04/15 16:20:58;;;;;;;12.03;6.47;;;;;;;12.05;100.00;100784.09;10465524;28;20197;-70
2022/04/15 16:26:03;;;;;;;12.40;7.57;;;;;;;11.98;100.00;100784.16;10465210;28;20269;-68
2022/04/15 16:31:07;;;;;;;12.63;7.33;;;;;;;11.89;100.00;100794.66;10465081;28;20223;-66
2022/04/15 16:36:11;;;;;;;11.30;6.80;;;;;;;11.94;100.00;100796.31;10466002;28;20258;-68
2022/04/15 16:41:16;;;;;;;12.57;7.10;;;;;;;12.03;100.00;100791.06;10464708;28;20192;-68
2022/04/15 16:46:19;;;;;;;14.00;7.00;;;;;;;12.13;100.00;100799.66;10465010;28;20280;-68
2022/04/15 16:51:23;;;;;;;19.60;7.80;;;;;;;12.11;100.00;100797.06;10464290;28;20226;-68
2022/04/15 17:01:50;;;;;;;12.63;7.67;;;;;;;12.22;100.00;100791.72;10464053;28;20219;-66
2022/04/15 17:06:53;;;;;;;15.93;7.93;;;;;;;12.23;100.00;100798.69;10463734;28;20193;-69
2022/04/15 17:11:58;;;;;;;17.27;10.57;;;;;;;12.19;100.00;100804.78;10462952;28;20316;-67
2022/04/15 17:17:02;;;;;;;14.87;8.43;;;;;;;12.18;100.00;100816.91;10462895;28;20254;-63
2022/04/15 17:22:06;;;;;;;15.13;8.87;;;;;;;12.18;100.00;100813.47;10462375;28;20295;-67
2022/04/15 17:27:10;;;;;;;13.17;8.70;;;;;;;12.19;100.00;100816.06;10463044;28;20193;-63
2022/04/15 17:32:14;;;;;;;18.30;10.73;;;;;;;12.20;100.00;100822.97;10463103;28;20225;-64
2022/04/15 17:37:37;;;;;;;16.63;9.83;;;;;;;12.24;100.00;100823.81;10462742;28;20255;-63
2022/04/15 17:42:42;;;;;;;12.53;7.80;;;;;;;12.28;100.00;100829.00;10462219;28;20284;-63
2022/04/15 17:47:45;;;;;;;15.03;8.77;;;;;;;12.21;100.00;100835.13;10462290;28;20541;-64
2022/04/15 17:52:49;;;;;;;16.17;9.03;;;;;;;12.18;100.00;100844.72;10461772;28;20202;-63
2022/04/15 17:57:53;;;;;;;13.63;8.30;;;;;;;12.21;100.00;100860.28;10461888;28;20280;-70
2022/04/15 18:02:57;;;;;;;18.03;8.57;;;;;;;12.19;100.00;100862.91;10461586;28;20244;-68
2022/04/15 18:08:00;;;;;;;14.93;8.73;;;;;;;12.18;100.00;100868.97;10460922;28;20311;-70
2022/04/15 18:13:07;;;;;;;12.77;8.27;;;;;;;12.19;100.00;100872.44;10460996;28;20233;-68
2022/04/15 18:18:11;;;;;;;16.53;9.33;;;;;;;12.14;100.00;100879.41;10460995;28;20708;-68
2022/04/15 18:23:14;;;;;;;15.40;8.73;;;;;;;12.16;100.00;100888.97;10460721;28;20240;-69
2022/04/15 18:28:19;;;;;;;21.90;13.13;;;;;;;12.13;100.00;100894.16;10109601;28;10000469;-69
2022/04/15 18:33:23;;;;;;;15.33;9.83;;;;;;;12.10;100.00;100909.81;10456912;28;20646;-69
2022/04/15 18:38:26;;;;;;;14.80;9.53;;;;;;;12.05;100.00;100906.38;10456414;28;20299;-71
2022/04/15 18:43:31;;;;;;;14.50;8.40;;;;;;;11.97;100.00;100905.59;10454710;28;20215;-69
2022/04/15 18:54:05;;;;;;;12.83;8.17;;;;;;;11.92;100.00;100920.38;10421726;28;20622;-70
2022/04/15 18:59:10;;;;;;;18.27;9.77;;;;;;;11.84;100.00;100921.28;10456132;28;20221;-68
2022/04/15 19:04:13;;;;;;;22.57;12.60;;;;;;;11.80;100.00;100923.03;10456156;28;20213;-71
2022/04/15 19:09:16;;;;;;;20.90;13.10;;;;;;;11.65;100.00;100930.06;10454817;28;20240;-70
2022/04/15 19:14:22;;;;;;;21.63;13.97;;;;;;;11.58;100.00;100931.78;10455528;28;20240;-70
2022/04/15 19:19:26;;;;;;;25.13;13.97;;;;;;;11.54;100.00;100930.91;10455764;28;20639;-70
2022/04/15 19:24:32;;;;;;;28.03;16.13;;;;;;;11.47;100.00;100938.78;10455204;28;20304;-66
2022/04/15 19:29:36;;;;;;;26.87;16.00;;;;;;;11.39;100.00;100943.13;10455444;28;20314;-67
2022/04/15 19:34:40;;;;;;;28.63;16.43;;;;;;;11.25;100.00;100945.78;10455230;28;20232;-67
2022/04/15 19:39:44;;;;;;;31.47;15.33;;;;;;;11.24;100.00;100956.19;10454902;28;20240;-67
2022/04/15 19:44:49;;;;;;;26.27;15.43;;;;;;;11.19;100.00;100955.34;10462789;28;20243;-69
2022/04/15 19:50:01;;;;;;;28.67;16.73;;;;;;;11.14;100.00;100957.97;10463382;28;20220;-69
2022/04/15 19:55:05;;;;;;;29.67;16.30;;;;;;;11.01;100.00;100960.59;10463192;28;20213;-69
2022/04/15 20:05:32;;;;;;;29.30;14.47;;;;;;;10.95;100.00;100963.19;10463143;28;20229;-68
2022/04/15 20:10:36;;;;;;;33.40;16.07;;;;;;;10.88;100.00;100966.66;10462774;28;20235;-69
2022/04/15 20:15:41;;;;;;;32.77;16.13;;;;;;;10.81;100.00;100977.91;10462355;28;20235;-69
2022/04/15 20:20:46;;;;;;;29.87;15.83;;;;;;;10.67;100.00;100984.84;10461965;28;20238;-67
2022/04/15 20:25:50;;;;;;;32.80;15.77;;;;;;;10.61;100.00;100977.09;10462327;28;20290;-70
2022/04/15 20:30:54;;;;;;;29.93;15.77;;;;;;;10.57;100.00;100988.31;10461741;28;20689;-69
2022/04/15 20:35:58;;;;;;;31.67;16.00;;;;;;;10.47;100.00;100990.91;10461816;28;20217;-71
2022/04/15 20:41:02;;;;;;;29.57;16.40;;;;;;;10.51;100.00;100998.72;10461298;28;20224;-68
2022/04/15 20:46:07;;;;;;;35.13;18.07;;;;;;;10.48;100.00;100995.25;10461399;28;20366;-70
2022/04/15 20:51:12;;;;;;;30.00;16.17;;;;;;;10.35;100.00;101008.22;10461261;28;20224;-71
2022/04/15 20:56:15;;;;;;;34.77;17.47;;;;;;;10.30;100.00;101005.59;10459342;28;20217;-72
2022/04/15 21:01:21;;;;;;;25.03;13.80;;;;;;;10.30;100.00;101009.94;10460505;28;20679;-70
2022/04/15 21:06:24;;;;;;;23.37;11.17;;;;;;;10.22;100.00;101019.41;10460619;28;20224;-69
2022/04/15 21:11:28;;;;;;;17.47;9.07;;;;;;;10.06;100.00;101028.03;10460454;28;20232;-69
2022/04/15 21:16:33;;;;;;;17.23;9.33;;;;;;;10.07;100.00;101019.38;10460100;28;20232;-70
2022/04/15 21:21:38;;;;;;;17.13;7.90;;;;;;;10.06;100.00;101026.28;10459868;28;20378;-70
2022/04/15 21:26:41;;;;;;;12.47;6.63;;;;;;;10.03;100.00;101026.28;10459579;28;20213;-69
2022/04/15 21:31:46;;;;;;;12.37;6.40;;;;;;;9.92;100.00;101027.94;10459469;28;20300;-68
2022/04/15 21:36:51;;;;;;;9.77;4.80;;;;;;;9.67;100.00;101025.28;10459376;28;20259;-69
2022/04/15 21:41:56;;;;;;;9.13;4.60;;;;;;;9.68;100.00;101027.88;10459121;28;20227;-69
2022/04/15 21:47:02;;;;;;;14.87;4.80;;;;;;;9.68;100.00;101039.97;10459040;28;20309;-69
2022/04/15 21:57:29;;;;;;;8.77;4.33;;;;;;;9.55;100.00;101061.50;10458710;28;20630;-67
2022/04/15 22:02:35;;;;;;;7.43;3.73;;;;;;;9.55;100.00;101064.97;10458380;28;20221;-69
2022/04/15 22:07:40;;;;;;;6.83;3.23;;;;;;;9.50;100.00;101077.03;10457629;28;20212;-69
2022/04/15 22:12:44;;;;;;;5.57;3.10;;;;;;;9.46;100.00;101084.78;10457859;28;20236;-68
2022/04/15 22:17:48;;;;;;;6.63;3.10;;;;;;;9.37;100.00;101095.09;10457619;28;20273;-67
2022/04/15 22:22:52;;;;;;;4.70;2.63;;;;;;;9.23;100.00;101119.16;10457969;28;20308;-71
2022/04/15 22:27:55;;;;;;;6.50;2.47;;;;;;;9.20;100.00;101113.94;10457367;28;20624;-69
2022/04/15 22:33:01;;;;;;;4.67;2.50;;;;;;;9.21;100.00;101117.41;10456829;28;20643;-69
2022/04/15 22:38:07;;;;;;;6.30;2.90;;;;;;;9.20;100.00;101126.91;10457250;28;20683;-70
2022/04/15 22:43:11;;;;;;;6.10;2.60;;;;;;;8.97;100.00;101131.00;10457275;28;20220;-69
2022/04/15 22:48:20;;;;;;;7.43;3.13;;;;;;;8.89;100.00;101135.28;10456524;28;20282;-70
2022/04/15 22:53:26;;;;;;;4.23;2.17;;;;;;;8.93;100.00;101139.63;10438932;28;20246;-69
2022/04/15 22:58:29;;;;;;;3.77;1.90;;;;;;;8.94;100.00;101141.34;10456197;28;20231;-70
2022/04/15 23:03:36;;;;;;;4.37;1.97;;;;;;;8.92;100.00;101140.47;10456237;28;20223;-69
2022/04/15 23:08:44;;;;;;;6.73;2.33;;;;;;;8.88;100.00;101154.25;10455962;28;20212;-70
2022/04/15 23:13:47;;;;;;;4.47;2.10;;;;;;;8.68;100.00;101154.91;10455744;28;20225;-69
2022/04/15 23:18:52;;;;;;;4.07;1.73;;;;;;;8.52;100.00;101153.88;10455197;28;20307;-69
2022/04/15 23:23:57;;;;;;;8.10;2.77;;;;;;;8.55;100.00;101161.66;10455448;28;20235;-66
2022/04/15 23:29:00;;;;;;;5.10;2.67;;;;;;;8.51;100.00;101161.63;10455425;28;20613;-66